createdAt,value
2023-03-13T00:04:39.645Z,6.63
2023-03-13T00:09:44.788Z,5.25
2023-03-13T00:14:49.294Z,6.20
2023-03-13T00:19:52.591Z,4.97
2023-03-13T00:24:57.235Z,4.47
2023-03-13T00:30:00.869Z,5.45
2023-03-13T00:35:05.024Z,5.55
2023-03-13T00:40:11.649Z,6.13
2023-03-13T00:45:15.019Z,5.82
2023-03-13T00:50:18.435Z,5.20
2023-03-13T00:55:23.223Z,5.78
2023-03-13T01:00:26.567Z,4.78
2023-03-13T01:05:29.880Z,5.90
2023-03-13T01:10:36.746Z,5.15
2023-03-13T01:15:40.162Z,5.50
2023-03-13T01:20:43.511Z,5.68
2023-03-13T01:25:48.074Z,5.65
2023-03-13T01:30:51.503Z,4.72
2023-03-13T01:36:01.502Z,4.97
2023-03-13T01:41:07.273Z,5.55
2023-03-13T01:46:14.082Z,5.13
2023-03-13T01:56:38.285Z,6.38
2023-03-13T02:01:42.543Z,5.97
2023-03-13T02:06:50.153Z,5.10
2023-03-13T02:11:58.955Z,5.60
2023-03-13T02:17:03.826Z,5.57
2023-03-13T02:22:12.348Z,4.57
2023-03-13T02:27:17.180Z,3.85
2023-03-13T02:32:23.106Z,4.38
2023-03-13T02:37:28.975Z,4.55
2023-03-13T02:42:34.225Z,3.55
2023-03-13T02:47:38.607Z,4.40
2023-03-13T02:52:45.343Z,5.97
2023-03-13T02:57:51.124Z,5.85
2023-03-13T03:02:56.014Z,3.85
2023-03-13T03:07:59.442Z,3.67
2023-03-13T03:13:06.095Z,4.35
2023-03-13T03:18:09.500Z,3.05
2023-03-13T03:23:13.187Z,3.97
2023-03-13T03:28:17.974Z,3.90
2023-03-13T03:33:22.194Z,3.60
2023-03-13T03:38:26.124Z,3.05
2023-03-13T03:43:30.822Z,3.92
2023-03-13T03:53:40.839Z,3.28
2023-03-13T03:58:45.750Z,3.60
2023-03-13T04:03:56.814Z,3.55
2023-03-13T04:09:00.158Z,3.53
2023-03-13T04:14:08.270Z,3.25
2023-03-13T04:19:12.113Z,3.45
2023-03-13T04:29:23.124Z,2.70
2023-03-13T04:34:56.039Z,3.50
2023-03-13T04:40:13.977Z,2.90
2023-03-13T04:45:38.913Z,2.70
2023-03-13T04:51:17.779Z,4.75
2023-03-13T04:56:42.301Z,3.53
2023-03-13T05:02:03.762Z,2.70
2023-03-13T05:07:16.304Z,4.90
2023-03-13T05:12:38.867Z,4.32
2023-03-13T05:17:56.430Z,4.05
2023-03-13T05:23:09.609Z,3.50
2023-03-13T05:28:31.764Z,4.22
2023-03-13T05:33:56.690Z,3.05
2023-03-13T05:39:29.308Z,3.50
2023-03-13T05:44:45.040Z,4.38
2023-03-13T05:50:07.546Z,3.08
2023-03-13T05:55:31.365Z,3.08
2023-03-13T06:00:51.552Z,4.22
2023-03-13T06:06:17.339Z,2.80
2023-03-13T06:11:32.096Z,2.65
2023-03-13T06:16:35.940Z,3.05
2023-03-13T06:21:53.226Z,2.78
2023-03-13T06:26:56.497Z,3.17
2023-03-13T06:31:59.894Z,3.25
2023-03-13T06:37:04.973Z,3.08
2023-03-13T06:42:08.432Z,2.83
2023-03-13T06:47:13.599Z,3.15
2023-03-13T06:52:20.646Z,3.80
2023-03-13T06:57:25.149Z,3.50
2023-03-13T07:02:29.039Z,2.97
2023-03-13T07:07:34.140Z,3.97
2023-03-13T07:12:37.868Z,4.10
2023-03-13T07:17:41.298Z,5.28
2023-03-13T07:22:52.147Z,3.80
2023-03-13T07:27:55.528Z,2.97
2023-03-13T07:32:59.232Z,3.88
2023-03-13T07:38:03.907Z,2.63
2023-03-13T07:43:07.754Z,3.20
2023-03-13T07:48:11.392Z,2.95
2023-03-13T07:53:21.144Z,3.72
2023-03-13T07:58:25.873Z,3.67
2023-03-13T08:03:30.307Z,3.58
2023-03-13T08:08:35.426Z,3.33
2023-03-13T08:13:39.255Z,3.33
2023-03-13T08:18:44.840Z,2.95
2023-03-13T08:23:52.529Z,3.53
2023-03-13T08:28:58.137Z,2.80
2023-03-13T08:34:01.851Z,3.53
2023-03-13T08:39:13.789Z,3.20
2023-03-13T08:44:18.527Z,3.63
2023-03-13T08:49:22.038Z,3.20
2023-03-13T08:54:26.939Z,2.47
2023-03-13T08:59:30.579Z,3.15
2023-03-13T09:04:33.824Z,2.53
2023-03-13T09:09:38.461Z,3.30
2023-03-13T09:14:41.749Z,3.90
2023-03-13T09:19:57.813Z,3.03
2023-03-13T09:25:05.183Z,2.85
2023-03-13T09:30:10.133Z,3.17
2023-03-13T09:35:14.390Z,2.40
2023-03-13T09:40:21.605Z,3.33
2023-03-13T09:45:33.965Z,3.00
2023-03-13T09:50:43.796Z,3.20
2023-03-13T09:55:48.702Z,3.00
2023-03-13T10:00:56.951Z,2.10
2023-03-13T10:06:04.410Z,2.67
2023-03-13T10:11:12.403Z,2.30
2023-03-13T10:16:20.799Z,2.90
2023-03-13T10:21:32.072Z,3.20
2023-03-13T10:26:37.774Z,2.63
2023-03-13T10:31:47.230Z,2.25
2023-03-13T10:36:56.700Z,2.30
2023-03-13T10:42:11.176Z,2.33
2023-03-13T10:47:15.460Z,2.47
2023-03-13T10:52:31.928Z,2.00
2023-03-13T10:57:37.679Z,2.35
2023-03-13T11:02:41.153Z,2.08
2023-03-13T11:07:46.592Z,1.75
2023-03-13T11:12:53.693Z,1.75
2023-03-13T11:18:02.402Z,1.88
2023-03-13T11:23:18.548Z,1.75
2023-03-13T11:28:34.576Z,1.35
2023-03-13T11:33:53.276Z,1.40
2023-03-13T11:39:06.176Z,1.10
2023-03-13T11:44:28.656Z,1.30
2023-03-13T11:50:18.571Z,1.42
2023-03-13T11:55:48.438Z,1.30
2023-03-13T12:00:58.234Z,1.17
2023-03-13T12:06:03.678Z,1.25
2023-03-13T12:11:13.479Z,0.90
2023-03-13T12:16:23.961Z,0.88
2023-03-13T12:21:32.162Z,0.75
2023-03-13T12:26:40.234Z,1.17
2023-03-13T12:31:50.626Z,1.02
2023-03-13T12:37:01.188Z,1.02
2023-03-13T12:42:19.479Z,0.68
2023-03-13T12:47:32.301Z,1.00
2023-03-13T12:52:50.846Z,0.77
2023-03-13T12:58:38.016Z,0.77
2023-03-13T13:03:52.842Z,1.13
2023-03-13T13:09:08.304Z,0.93
2023-03-13T13:14:53.509Z,1.05
2023-03-13T13:20:19.057Z,0.70
2023-03-13T13:25:35.247Z,1.00
2023-03-13T13:30:38.727Z,1.13
2023-03-13T13:35:43.518Z,0.60
2023-03-13T13:40:59.502Z,0.60
2023-03-13T13:46:07.274Z,1.02
2023-03-13T13:51:25.447Z,0.85
2023-03-13T13:56:43.261Z,1.02
2023-03-13T14:01:47.823Z,0.98
2023-03-13T14:06:53.809Z,0.80
2023-03-13T14:11:57.845Z,1.08
2023-03-13T14:17:01.349Z,1.30
2023-03-13T14:22:07.120Z,0.95
2023-03-13T14:27:18.731Z,1.00
2023-03-13T14:32:26.372Z,0.90
2023-03-13T14:37:36.548Z,1.13
2023-03-13T14:42:44.300Z,1.52
2023-03-13T14:47:47.739Z,0.95
2023-03-13T14:52:55.389Z,0.90
2023-03-13T14:58:01.224Z,1.52
2023-03-13T15:03:28.608Z,1.00
2023-03-13T15:08:34.517Z,1.02
2023-03-13T15:13:38.184Z,0.95
2023-03-13T15:18:41.631Z,1.00
2023-03-13T15:23:50.005Z,1.10
2023-03-13T15:28:53.609Z,1.10
2023-03-13T15:33:59.913Z,1.23
2023-03-13T15:39:06.507Z,1.05
2023-03-13T15:44:09.889Z,1.20
2023-03-13T15:49:14.297Z,0.98
2023-03-13T15:54:19.310Z,0.98
2023-03-13T15:59:22.814Z,0.98
2023-03-13T16:04:26.405Z,1.20
2023-03-13T16:09:31.627Z,1.38
2023-03-13T16:14:35.717Z,1.20
2023-03-13T16:19:39.004Z,1.17
2023-03-13T16:24:43.599Z,1.10
2023-03-13T16:29:47.318Z,1.10
2023-03-13T16:34:50.543Z,1.10
2023-03-13T16:39:55.512Z,1.05
2023-03-13T16:44:59.361Z,1.05
2023-03-13T16:50:03.293Z,1.30
2023-03-13T16:55:09.014Z,1.23
2023-03-13T17:00:16.395Z,1.20
2023-03-13T17:05:20.164Z,1.00
2023-03-13T17:10:27.013Z,1.30
2023-03-13T17:15:30.353Z,1.10
2023-03-13T17:20:33.537Z,1.23
2023-03-13T17:25:38.272Z,1.30
2023-03-13T17:30:41.541Z,1.52
2023-03-13T17:35:45.109Z,1.20
2023-03-13T17:40:49.804Z,1.52
2023-03-13T17:45:54.533Z,1.52
2023-03-13T17:50:58.363Z,1.27
2023-03-13T17:56:02.988Z,1.40
2023-03-13T18:01:07.004Z,1.77
2023-03-13T18:06:18.494Z,1.48
2023-03-13T18:11:25.172Z,2.05
2023-03-13T18:16:37.455Z,1.95
2023-03-13T18:21:41.285Z,2.38
2023-03-13T18:26:47.963Z,1.80
2023-03-13T18:31:53.259Z,1.67
2023-03-13T18:37:03.489Z,1.70
2023-03-13T18:42:10.326Z,1.65
2023-03-13T18:47:16.246Z,1.20
2023-03-13T18:52:19.641Z,1.50
2023-03-13T18:57:24.258Z,1.50
2023-03-13T19:02:27.715Z,1.40
2023-03-13T19:07:31.026Z,1.30
2023-03-13T19:12:35.770Z,1.20
2023-03-13T19:17:39.100Z,1.45
2023-03-13T19:22:42.498Z,1.52
2023-03-13T19:27:48.289Z,1.80
2023-03-13T19:32:52.296Z,1.30
2023-03-13T19:37:55.761Z,1.23
2023-03-13T19:43:00.361Z,1.75
2023-03-13T19:48:04.363Z,1.40
2023-03-13T19:53:08.022Z,1.42
2023-03-13T19:58:13.291Z,1.52
2023-03-13T20:03:16.728Z,1.83
2023-03-13T20:08:20.076Z,1.77
2023-03-13T20:13:24.886Z,1.75
2023-03-13T20:18:28.428Z,1.30
2023-03-13T20:23:32.893Z,2.10
2023-03-13T20:28:38.386Z,1.85
2023-03-13T20:33:41.714Z,2.03
2023-03-13T20:38:45.236Z,1.67
2023-03-13T20:43:50.120Z,1.90
2023-03-13T20:48:53.378Z,2.10
2023-03-13T20:53:57.334Z,2.15
2023-03-13T20:59:02.179Z,1.73
2023-03-13T21:09:09.125Z,2.13
2023-03-13T21:14:13.743Z,2.10
2023-03-13T21:19:17.198Z,2.25
2023-03-13T21:24:20.649Z,1.90
2023-03-13T21:29:25.693Z,2.50
2023-03-13T21:34:29.096Z,1.60
2023-03-13T21:39:32.821Z,2.10
2023-03-13T21:44:37.745Z,1.55
2023-03-13T21:49:41.063Z,2.10
2023-03-13T21:54:44.559Z,2.00
2023-03-13T21:59:49.689Z,2.00
2023-03-13T22:04:53.056Z,2.10
2023-03-13T22:09:57.027Z,1.95
2023-03-13T22:15:01.588Z,2.05
2023-03-13T22:20:06.845Z,1.42
2023-03-13T22:25:10.324Z,1.55
2023-03-13T22:30:15.348Z,1.75
2023-03-13T22:35:18.954Z,1.33
2023-03-13T22:40:22.962Z,1.50
2023-03-13T22:45:28.421Z,1.98
2023-03-13T22:50:32.231Z,1.70
2023-03-13T22:55:35.554Z,1.55
2023-03-13T23:00:40.785Z,1.58
2023-03-13T23:05:45.691Z,1.38
2023-03-13T23:10:49.141Z,2.10
2023-03-13T23:15:55.962Z,1.70
2023-03-13T23:21:04.836Z,1.20
2023-03-13T23:26:10.942Z,1.33
2023-03-13T23:31:18.489Z,1.10
2023-03-13T23:36:21.988Z,1.27
2023-03-13T23:41:25.481Z,1.08
2023-03-13T23:46:30.349Z,1.08
2023-03-13T23:51:33.794Z,1.00
2023-03-13T23:56:37.727Z,1.10
